Time;durP1;ratioP1;P1;durP2;ratioP2;P2;SDS_P1;SDS_P2;PMS_P1;PMS_P2;Temp;Humidity;BMP_temperature;BMP_pressure;BME280_temperature;BME280_humidity;BME280_pressure;Samples;Min_cycle;Max_cycle;Signal;HPM_P1;HPM_P2
2023/12/18 00:01:39;;;;;;;77.07;19.27;;;2.90;99.90;;;;;;4967449;28;20073;-52
2023/12/18 00:04:06;;;;;;;47.63;19.00;;;2.90;99.90;;;;;;4967686;28;20096;-50
2023/12/18 00:06:31;;;;;;;41.13;19.50;;;2.80;99.90;;;;;;4967301;28;20029;-57
2023/12/18 00:08:57;;;;;;;87.05;20.27;;;2.70;99.90;;;;;;4950354;28;20410;-57
2023/12/18 00:11:22;;;;;;;34.75;19.08;;;2.80;99.90;;;;;;4967258;28;20030;-58
2023/12/18 00:13:48;;;;;;;82.18;18.65;;;2.70;99.90;;;;;;4967583;28;20444;-55
2023/12/18 00:16:14;;;;;;;49.85;16.85;;;2.90;99.90;;;;;;4949901;28;20034;-54
2023/12/18 00:18:40;;;;;;;52.70;18.20;;;2.70;99.90;;;;;;4950118;28;20510;-53
2023/12/18 00:21:05;;;;;;;47.08;17.52;;;2.70;99.90;;;;;;4967291;28;20409;-53
2023/12/18 00:23:31;;;;;;;60.58;18.45;;;2.70;99.90;;;;;;4950334;28;20470;-56
2023/12/18 00:25:56;;;;;;;77.22;19.67;;;2.60;99.90;;;;;;4967118;28;20038;-55
2023/12/18 00:28:22;;;;;;;58.10;20.30;;;2.70;99.90;;;;;;4968275;28;20027;-54
2023/12/18 00:30:48;;;;;;;89.22;20.73;;;2.70;99.90;;;;;;4968694;28;20027;-50
2023/12/18 00:33:13;;;;;;;101.65;22.10;;;2.70;99.90;;;;;;4970079;28;20026;-49
2023/12/18 00:35:40;;;;;;;79.40;21.65;;;2.70;99.90;;;;;;4970275;28;20023;-52
2023/12/18 00:38:05;;;;;;;66.82;22.63;;;2.70;99.90;;;;;;4970515;28;20023;-49
2023/12/18 00:40:31;;;;;;;51.42;20.17;;;2.70;99.90;;;;;;4970017;28;20113;-48
2023/12/18 00:42:57;;;;;;;62.92;20.77;;;2.70;99.90;;;;;;4970366;28;20056;-55
2023/12/18 00:45:23;;;;;;;65.35;22.05;;;2.60;99.90;;;;;;4970060;28;20031;-54
2023/12/18 00:47:49;;;;;;;132.90;24.58;;;2.70;99.90;;;;;;4952741;28;20034;-50
2023/12/18 00:50:14;;;;;;;101.60;22.98;;;2.70;99.90;;;;;;4952874;28;20469;-49
2023/12/18 00:52:41;;;;;;;86.45;20.73;;;2.80;99.90;;;;;;4970390;28;20035;-50
2023/12/18 00:55:07;;;;;;;76.30;23.27;;;2.70;99.90;;;;;;4954104;28;20072;-50
2023/12/18 00:57:32;;;;;;;70.35;21.67;;;2.70;99.90;;;;;;4971057;28;20557;-51
2023/12/18 00:59:59;;;;;;;116.05;22.23;;;2.70;99.90;;;;;;4971233;28;20098;-52
2023/12/18 01:02:24;;;;;;;77.20;21.90;;;2.70;99.90;;;;;;4971245;28;20069;-51
2023/12/18 01:04:50;;;;;;;85.30;24.05;;;2.70;99.90;;;;;;4971902;28;20398;-52
2023/12/18 01:07:15;;;;;;;90.95;22.70;;;2.80;99.90;;;;;;4971494;28;20114;-53
2023/12/18 01:09:41;;;;;;;94.70;23.48;;;2.70;99.90;;;;;;4971375;28;20150;-52
2023/12/18 01:12:06;;;;;;;128.95;24.60;;;2.80;99.90;;;;;;4970622;28;20421;-51
2023/12/18 01:14:33;;;;;;;89.78;24.48;;;2.80;99.90;;;;;;4971263;28;20015;-51
2023/12/18 01:16:58;;;;;;;99.85;25.08;;;2.80;99.90;;;;;;4971273;28;20059;-49
2023/12/18 01:19:23;;;;;;;111.72;24.17;;;2.70;99.90;;;;;;4971318;28;20042;-53
2023/12/18 01:21:49;;;;;;;76.53;24.52;;;2.90;99.90;;;;;;4971872;28;20538;-50
2023/12/18 01:24:15;;;;;;;114.93;24.77;;;2.70;99.90;;;;;;4972674;28;20107;-50
2023/12/18 01:26:41;;;;;;;84.55;26.40;;;2.70;99.90;;;;;;4972857;28;20046;-50
2023/12/18 01:29:06;;;;;;;117.68;24.88;;;2.70;99.90;;;;;;4955952;28;20061;-54
2023/12/18 01:31:32;;;;;;;73.55;26.20;;;2.70;99.90;;;;;;4973554;28;20027;-50
2023/12/18 01:33:58;;;;;;;111.68;26.80;;;2.70;99.90;;;;;;4973105;28;20482;-52
2023/12/18 01:36:24;;;;;;;92.60;26.02;;;2.60;99.90;;;;;;4972740;28;20023;-48
2023/12/18 01:38:49;;;;;;;160.25;26.25;;;2.60;99.90;;;;;;4973367;28;20030;-52
2023/12/18 01:41:16;;;;;;;159.73;25.55;;;2.60;99.90;;;;;;4956860;28;20030;-55
2023/12/18 01:43:41;;;;;;;136.07;27.27;;;2.60;99.90;;;;;;4977824;28;20039;-54
2023/12/18 01:46:08;;;;;;;127.57;24.48;;;2.60;99.90;;;;;;4977458;28;20026;-54
2023/12/18 01:48:33;;;;;;;94.47;25.00;;;2.50;99.90;;;;;;4977483;28;20054;-55
2023/12/18 01:51:00;;;;;;;97.25;25.20;;;2.60;99.90;;;;;;4957449;28;20030;-55
2023/12/18 01:53:30;;;;;;;90.60;25.73;;;2.60;99.90;;;;;;4974924;28;20061;-51
2023/12/18 01:55:57;;;;;;;108.95;27.13;;;2.50;99.90;;;;;;4957637;28;20023;-50
2023/12/18 01:58:23;;;;;;;137.00;26.67;;;2.60;99.90;;;;;;4975531;28;20505;-50
2023/12/18 02:00:49;;;;;;;135.32;27.10;;;2.60;99.90;;;;;;4974906;28;20030;-51
2023/12/18 02:03:17;;;;;;;107.00;26.08;;;2.60;99.90;;;;;;4975491;28;20057;-53
2023/12/18 02:05:44;;;;;;;74.20;25.02;;;2.60;99.90;;;;;;4975897;28;20023;-52
2023/12/18 02:08:10;;;;;;;76.13;23.17;;;2.50;99.90;;;;;;4975336;28;20027;-54
2023/12/18 02:10:37;;;;;;;116.70;26.88;;;2.50;99.90;;;;;;4975286;28;20489;-54
2023/12/18 02:13:03;;;;;;;51.05;23.88;;;2.50;99.90;;;;;;4975618;28;20030;-51
2023/12/18 02:15:28;;;;;;;84.65;27.38;;;2.50;99.90;;;;;;4974769;28;20470;-50
2023/12/18 02:17:54;;;;;;;65.45;22.27;;;2.50;99.90;;;;;;4956358;28;20027;-54
2023/12/18 02:20:20;;;;;;;115.80;25.45;;;2.50;99.90;;;;;;4973741;28;20395;-52
2023/12/18 02:22:48;;;;;;;72.78;24.15;;;2.50;99.90;;;;;;4973709;28;20042;-48
2023/12/18 02:25:17;;;;;;;54.25;24.98;;;2.50;99.90;;;;;;4973739;28;20126;-51
2023/12/18 02:27:48;;;;;;;73.10;25.33;;;2.50;99.90;;;;;;4973686;28;20563;-50
2023/12/18 02:30:17;;;;;;;76.68;24.10;;;2.60;99.90;;;;;;4973564;28;20098;-52
2023/12/18 02:32:43;;;;;;;82.32;26.40;;;2.60;99.90;;;;;;4973864;28;20093;-55
2023/12/18 02:35:09;;;;;;;95.30;24.70;;;2.60;99.90;;;;;;4973986;28;20500;-55
2023/12/18 02:37:34;;;;;;;86.70;23.48;;;2.60;99.90;;;;;;4973648;28;20027;-49
2023/12/18 02:40:00;;;;;;;120.55;25.27;;;2.60;99.90;;;;;;4973069;28;20030;-49
2023/12/18 02:42:25;;;;;;;95.15;25.77;;;2.60;99.90;;;;;;4973097;28;20022;-49
2023/12/18 02:44:52;;;;;;;96.63;25.75;;;2.60;99.90;;;;;;4955573;28;20038;-52
2023/12/18 02:47:17;;;;;;;84.25;25.20;;;2.60;99.90;;;;;;4972977;28;20027;-52
2023/12/18 02:49:43;;;;;;;103.93;26.08;;;2.60;99.90;;;;;;4972797;28;20156;-54
2023/12/18 02:52:09;;;;;;;77.50;26.73;;;2.60;99.90;;;;;;4972921;28;20027;-51
2023/12/18 02:54:34;;;;;;;66.63;25.00;;;2.50;99.90;;;;;;4971800;28;20077;-49
2023/12/18 02:57:00;;;;;;;61.33;22.52;;;2.50;99.90;;;;;;4985521;22;20093;-49
2023/12/18 02:59:25;;;;;;;61.05;23.40;;;2.50;99.90;;;;;;4973010;28;20030;-54
2023/12/18 03:01:51;;;;;;;77.57;27.40;;;2.60;99.90;;;;;;4966753;28;20030;-50
2023/12/18 03:04:19;;;;;;;72.88;23.88;;;2.60;99.90;;;;;;4971575;28;20038;-45
2023/12/18 03:06:48;;;;;;;54.15;24.08;;;2.70;99.90;;;;;;4960593;28;20434;-52
2023/12/18 03:09:13;;;;;;;79.05;25.98;;;2.70;99.90;;;;;;4951974;29;20098;-49
2023/12/18 03:11:42;;;;;;;68.20;25.08;;;2.70;99.90;;;;;;4951603;29;20461;-49
2023/12/18 03:14:09;;;;;;;94.70;24.38;;;2.60;99.90;;;;;;4951889;29;20555;-56
2023/12/18 03:16:35;;;;;;;100.22;25.83;;;2.60;99.90;;;;;;4951848;29;20110;-50
2023/12/18 03:19:00;;;;;;;82.93;24.20;;;2.60;99.90;;;;;;4934689;28;20031;-53
2023/12/18 03:21:26;;;;;;;126.55;25.52;;;2.60;99.90;;;;;;4951484;28;20034;-50
2023/12/18 03:23:51;;;;;;;64.53;23.92;;;2.50;99.90;;;;;;4951795;29;20031;-53
2023/12/18 03:26:17;;;;;;;67.95;24.25;;;2.50;99.90;;;;;;4950387;29;20125;-48
2023/12/18 03:28:43;;;;;;;104.25;25.98;;;2.50;99.90;;;;;;4934713;28;20031;-54
2023/12/18 03:31:10;;;;;;;56.28;23.60;;;2.50;99.90;;;;;;4934342;28;20031;-50
2023/12/18 03:33:36;;;;;;;147.55;25.95;;;2.60;99.90;;;;;;4951457;29;20089;-49
2023/12/18 03:36:02;;;;;;;99.13;24.55;;;2.70;99.90;;;;;;4934510;28;20438;-52
2023/12/18 03:38:28;;;;;;;59.33;26.40;;;2.60;99.90;;;;;;4951506;29;20036;-52
2023/12/18 03:40:53;;;;;;;100.70;26.95;;;2.60;99.90;;;;;;4951399;29;20393;-49
2023/12/18 03:43:19;;;;;;;62.92;24.50;;;2.60;99.90;;;;;;4934350;29;20027;-54
2023/12/18 03:45:44;;;;;;;90.28;27.33;;;2.60;99.90;;;;;;4951554;29;20110;-50
2023/12/18 03:48:10;;;;;;;69.65;25.02;;;2.70;99.90;;;;;;4951299;29;20513;-51
2023/12/18 03:50:35;;;;;;;56.83;23.00;;;2.60;99.90;;;;;;4933920;29;20098;-52
2023/12/18 03:53:01;;;;;;;79.03;22.60;;;2.60;99.90;;;;;;4951344;29;20447;-51
2023/12/18 03:55:26;;;;;;;92.03;24.23;;;2.60;99.90;;;;;;4951635;29;20512;-50
2023/12/18 03:57:52;;;;;;;46.30;22.05;;;2.60;99.90;;;;;;4951138;29;20173;-51
2023/12/18 04:00:17;;;;;;;72.75;22.80;;;2.60;99.90;;;;;;4950858;29;20027;-52
2023/12/18 04:02:43;;;;;;;122.13;24.83;;;2.70;99.90;;;;;;4951383;29;20031;-50
2023/12/18 04:05:09;;;;;;;74.90;23.52;;;2.80;99.90;;;;;;4933885;29;20024;-52
2023/12/18 04:07:34;;;;;;;95.78;23.48;;;2.70;99.90;;;;;;4950059;29;20042;-51
2023/12/18 04:10:00;;;;;;;65.88;24.05;;;2.80;99.90;;;;;;4949912;29;20027;-49
2023/12/18 04:12:25;;;;;;;88.32;23.52;;;2.80;99.90;;;;;;4950940;29;20389;-49
2023/12/18 04:14:50;;;;;;;94.80;22.33;;;2.80;99.90;;;;;;4951593;29;20363;-52
2023/12/18 04:17:16;;;;;;;69.53;22.30;;;2.80;99.90;;;;;;4933925;29;20023;-50
2023/12/18 04:19:42;;;;;;;94.35;25.77;;;2.90;99.90;;;;;;4951149;29;20114;-52
2023/12/18 04:22:07;;;;;;;69.90;22.95;;;3.00;99.90;;;;;;4950862;29;20402;-54
2023/12/18 04:24:32;;;;;;;96.85;25.95;;;2.90;99.90;;;;;;4951052;29;20023;-49
2023/12/18 04:26:58;;;;;;;91.80;22.05;;;2.90;99.90;;;;;;4949888;29;20066;-51
2023/12/18 04:29:23;;;;;;;69.78;23.98;;;2.90;99.90;;;;;;4951038;29;20023;-51
2023/12/18 04:31:52;;;;;;;88.43;24.17;;;3.00;99.90;;;;;;4950364;29;20487;-54
2023/12/18 04:34:18;;;;;;;68.78;24.10;;;2.90;99.90;;;;;;4950705;29;20036;-50
2023/12/18 04:36:44;;;;;;;87.05;25.65;;;2.90;99.90;;;;;;4951251;29;20543;-54
2023/12/18 04:39:14;;;;;;;109.03;25.10;;;2.90;99.90;;;;;;4951115;29;20098;-53
2023/12/18 04:41:39;;;;;;;62.60;22.42;;;3.00;99.90;;;;;;4950669;29;20054;-55
2023/12/18 04:44:05;;;;;;;61.67;23.67;;;3.00;99.90;;;;;;4951046;29;20035;-52
2023/12/18 04:46:35;;;;;;;58.78;23.85;;;3.00;99.90;;;;;;4951063;29;20556;-51
2023/12/18 04:49:01;;;;;;;76.78;23.23;;;3.00;99.90;;;;;;4950655;29;20110;-51
2023/12/18 04:51:27;;;;;;;90.18;23.52;;;3.00;99.90;;;;;;4950613;29;20031;-50
2023/12/18 04:53:52;;;;;;;77.13;23.38;;;3.00;99.90;;;;;;4951073;29;20027;-49
2023/12/18 04:56:18;;;;;;;58.63;23.63;;;3.00;99.90;;;;;;4951025;29;20031;-51
2023/12/18 04:58:43;;;;;;;95.47;25.25;;;3.00;99.90;;;;;;4933740;29;20502;-55
2023/12/18 05:01:10;;;;;;;46.85;21.55;;;3.00;99.90;;;;;;4950263;28;20039;-50
2023/12/18 05:03:36;;;;;;;81.18;21.88;;;3.00;99.90;;;;;;4950621;29;20035;-48
2023/12/18 05:06:01;;;;;;;46.38;22.25;;;3.10;99.90;;;;;;4950608;29;20029;-52
2023/12/18 05:08:27;;;;;;;71.32;22.75;;;3.10;99.90;;;;;;4933270;29;20063;-52
2023/12/18 05:10:53;;;;;;;64.50;22.30;;;3.10;99.90;;;;;;4950277;29;20542;-51
2023/12/18 05:13:19;;;;;;;84.65;21.15;;;3.10;99.90;;;;;;4950717;29;20089;-54
2023/12/18 05:15:44;;;;;;;97.28;23.42;;;3.10;99.90;;;;;;4950671;29;20498;-57
2023/12/18 05:18:09;;;;;;;49.28;22.40;;;3.10;99.90;;;;;;4953265;29;20583;-52
2023/12/18 05:20:35;;;;;;;55.13;21.95;;;3.00;99.90;;;;;;4953728;29;20035;-52
2023/12/18 05:23:00;;;;;;;106.50;22.67;;;2.90;99.90;;;;;;4953967;29;20027;-53
2023/12/18 05:25:26;;;;;;;107.28;23.70;;;2.90;99.90;;;;;;4953922;29;20067;-50
2023/12/18 05:27:51;;;;;;;102.65;24.02;;;3.00;99.90;;;;;;4953912;29;20042;-49
2023/12/18 05:30:17;;;;;;;81.07;24.95;;;3.00;99.90;;;;;;4953640;29;20436;-56
2023/12/18 05:32:42;;;;;;;183.38;24.50;;;3.00;99.90;;;;;;4953881;29;20025;-51
2023/12/18 05:35:08;;;;;;;136.00;26.65;;;3.00;99.90;;;;;;4953931;29;20038;-52
2023/12/18 05:37:33;;;;;;;139.95;28.27;;;2.90;99.90;;;;;;4953699;29;20019;-51
2023/12/18 05:39:59;;;;;;;65.78;24.60;;;2.90;99.90;;;;;;4953669;29;20077;-57
2023/12/18 05:42:24;;;;;;;114.15;26.55;;;2.90;99.90;;;;;;4953484;29;20031;-54
2023/12/18 05:44:50;;;;;;;110.63;27.67;;;2.80;99.90;;;;;;4953941;29;20072;-53
2023/12/18 05:47:15;;;;;;;126.47;26.75;;;2.80;99.90;;;;;;4953535;29;20054;-53
2023/12/18 05:49:41;;;;;;;153.32;28.25;;;2.90;99.90;;;;;;4953399;29;20028;-54
2023/12/18 05:52:06;;;;;;;114.40;27.55;;;2.90;99.90;;;;;;4953184;29;20034;-54
2023/12/18 05:54:32;;;;;;;104.10;26.95;;;2.90;99.90;;;;;;4953614;29;20085;-52
2023/12/18 05:56:57;;;;;;;62.65;27.88;;;2.80;99.90;;;;;;4953316;29;20108;-51
2023/12/18 05:59:23;;;;;;;78.75;25.83;;;2.80;99.90;;;;;;4953443;29;20093;-51
2023/12/18 06:01:48;;;;;;;58.78;26.00;;;2.90;99.90;;;;;;4953120;29;20031;-50
2023/12/18 06:04:14;;;;;;;83.28;29.65;;;3.00;99.90;;;;;;4953229;29;20145;-53
2023/12/18 06:06:39;;;;;;;111.45;28.42;;;2.90;99.90;;;;;;4953464;29;20051;-49
2023/12/18 06:09:05;;;;;;;67.82;26.75;;;3.00;99.90;;;;;;4953154;29;20047;-51
2023/12/18 06:11:31;;;;;;;58.83;25.00;;;3.10;99.90;;;;;;4953833;29;20038;-49
2023/12/18 06:13:58;;;;;;;86.65;27.70;;;3.00;99.90;;;;;;4953424;29;20367;-54
2023/12/18 06:16:23;;;;;;;83.72;29.60;;;3.00;99.90;;;;;;4952977;29;20390;-52
2023/12/18 06:18:49;;;;;;;82.55;29.20;;;3.10;99.90;;;;;;4953090;29;20038;-54
2023/12/18 06:21:14;;;;;;;90.45;27.10;;;3.10;99.90;;;;;;4952781;29;20126;-52
2023/12/18 06:23:44;;;;;;;92.25;27.52;;;3.20;99.90;;;;;;4953064;29;20027;-52
2023/12/18 06:26:10;;;;;;;95.57;30.85;;;3.20;99.90;;;;;;4953176;29;20062;-54
2023/12/18 06:28:35;;;;;;;101.30;33.03;;;3.20;99.90;;;;;;4934317;29;20513;-53
2023/12/18 06:31:01;;;;;;;103.95;34.80;;;3.20;99.90;;;;;;4952671;29;20031;-51
2023/12/18 06:33:27;;;;;;;70.60;34.42;;;3.10;99.90;;;;;;4952874;29;20024;-51
2023/12/18 06:35:52;;;;;;;78.85;32.55;;;3.00;99.90;;;;;;4953039;29;20024;-52
2023/12/18 06:38:18;;;;;;;83.72;32.17;;;3.00;99.90;;;;;;4952656;29;20129;-53
2023/12/18 06:40:43;;;;;;;82.78;32.28;;;2.90;99.90;;;;;;4952330;29;20114;-56
2023/12/18 06:43:09;;;;;;;129.93;32.47;;;2.90;99.90;;;;;;4952843;29;20100;-51
2023/12/18 06:45:34;;;;;;;91.45;32.17;;;2.90;99.90;;;;;;4952762;29;20067;-54
2023/12/18 06:48:00;;;;;;;76.93;29.42;;;2.90;99.90;;;;;;4952439;29;20106;-51
2023/12/18 06:50:25;;;;;;;96.72;31.67;;;2.90;99.90;;;;;;4952378;29;20024;-52
2023/12/18 06:52:51;;;;;;;77.15;31.38;;;2.90;99.90;;;;;;4952626;29;20055;-50
2023/12/18 06:55:17;;;;;;;128.98;30.25;;;2.90;99.90;;;;;;4952577;29;20030;-49
2023/12/18 06:57:42;;;;;;;73.68;30.75;;;2.80;99.90;;;;;;4952429;29;20501;-52
2023/12/18 07:00:09;;;;;;;98.65;29.92;;;2.70;99.90;;;;;;4952549;29;20412;-52
2023/12/18 07:02:34;;;;;;;80.95;29.80;;;2.70;99.90;;;;;;4952202;29;20058;-51
2023/12/18 07:05:00;;;;;;;88.10;31.17;;;2.70;99.90;;;;;;4951103;29;20058;-49
2023/12/18 07:07:25;;;;;;;78.78;30.98;;;2.80;99.90;;;;;;4952382;29;20034;-52
2023/12/18 07:09:51;;;;;;;84.13;30.23;;;2.80;99.90;;;;;;4952135;29;20035;-52
2023/12/18 07:12:17;;;;;;;112.05;34.35;;;2.80;99.90;;;;;;4952051;29;20023;-53
2023/12/18 07:14:43;;;;;;;77.78;30.38;;;2.90;99.90;;;;;;4952236;29;20498;-52
2023/12/18 07:17:08;;;;;;;77.28;32.13;;;3.00;99.90;;;;;;4934979;29;20035;-51
2023/12/18 07:19:37;;;;;;;69.85;30.95;;;3.00;99.90;;;;;;4952330;29;20494;-49
2023/12/18 07:22:02;;;;;;;59.97;31.10;;;3.00;99.90;;;;;;4951935;29;20024;-55
2023/12/18 07:24:28;;;;;;;136.55;29.25;;;3.00;99.90;;;;;;4952017;29;20119;-51
2023/12/18 07:26:54;;;;;;;102.28;28.65;;;3.10;99.90;;;;;;4952394;29;20027;-51
2023/12/18 07:29:19;;;;;;;80.68;30.30;;;3.10;99.90;;;;;;4951930;29;20036;-52
2023/12/18 07:31:45;;;;;;;112.43;29.42;;;3.10;99.90;;;;;;4951946;29;20027;-52
2023/12/18 07:34:10;;;;;;;59.58;27.60;;;3.10;99.90;;;;;;4952127;29;20502;-54
2023/12/18 07:36:39;;;;;;;120.18;29.77;;;3.00;99.90;;;;;;4951694;29;20043;-54
2023/12/18 07:39:04;;;;;;;182.13;29.92;;;3.00;99.90;;;;;;4951365;28;20409;-52
2023/12/18 07:41:30;;;;;;;107.47;29.52;;;3.00;99.90;;;;;;4951068;29;20076;-51
2023/12/18 07:43:56;;;;;;;107.78;29.85;;;2.90;99.90;;;;;;4951874;29;20043;-52
2023/12/18 07:46:23;;;;;;;101.15;27.88;;;2.90;99.90;;;;;;4951922;29;20067;-54
2023/12/18 07:48:49;;;;;;;67.38;28.67;;;2.70;99.90;;;;;;4951993;29;20020;-55
2023/12/18 07:51:15;;;;;;;79.05;28.02;;;2.70;99.90;;;;;;4951520;28;20080;-48
2023/12/18 07:53:41;;;;;;;93.72;25.60;;;2.70;99.90;;;;;;4951627;29;20023;-53
2023/12/18 07:56:07;;;;;;;82.70;29.13;;;2.70;99.90;;;;;;4934529;29;20034;-50
2023/12/18 07:58:32;;;;;;;53.78;26.02;;;2.80;99.90;;;;;;4951904;29;20089;-52
2023/12/18 08:00:58;;;;;;;97.13;28.13;;;2.80;99.90;;;;;;4951526;29;20031;-53
2023/12/18 08:03:23;;;;;;;80.85;27.38;;;2.90;99.90;;;;;;4951737;29;20506;-54
2023/12/18 08:05:49;;;;;;;144.00;28.55;;;2.90;99.90;;;;;;4951529;29;20055;-51
2023/12/18 08:08:14;;;;;;;87.15;25.65;;;2.80;99.90;;;;;;4951730;29;20089;-48
2023/12/18 08:10:40;;;;;;;87.20;25.77;;;2.90;99.90;;;;;;4951413;29;20031;-50
2023/12/18 08:13:05;;;;;;;43.22;22.52;;;2.80;99.90;;;;;;4951709;29;20023;-51
2023/12/18 08:15:31;;;;;;;39.45;21.88;;;2.80;99.90;;;;;;4951777;29;20033;-52
2023/12/18 08:17:57;;;;;;;57.80;23.40;;;2.70;99.90;;;;;;4952686;29;20076;-54
2023/12/18 08:20:22;;;;;;;64.63;24.00;;;2.80;99.90;;;;;;4951366;29;20039;-49
2023/12/18 08:22:48;;;;;;;59.97;20.67;;;2.70;99.90;;;;;;4951377;28;20027;-53
2023/12/18 08:25:13;;;;;;;89.03;20.98;;;2.70;99.90;;;;;;4951213;29;20028;-53
2023/12/18 08:27:40;;;;;;;89.13;19.95;;;2.70;99.90;;;;;;4951049;29;20019;-55
2023/12/18 08:30:08;;;;;;;72.53;18.83;;;2.60;99.90;;;;;;4951201;29;20031;-52
2023/12/18 08:32:34;;;;;;;47.92;18.77;;;2.50;99.90;;;;;;4950984;29;20093;-53
2023/12/18 08:35:00;;;;;;;68.82;21.40;;;2.50;99.90;;;;;;4951196;29;20486;-54
2023/12/18 08:37:27;;;;;;;76.28;21.63;;;2.40;99.90;;;;;;4951088;29;20505;-54
2023/12/18 08:39:53;;;;;;;37.47;20.55;;;2.40;99.90;;;;;;4933915;29;20529;-50
2023/12/18 08:42:18;;;;;;;57.25;21.27;;;2.40;99.90;;;;;;4950878;29;20062;-51
2023/12/18 08:44:43;;;;;;;54.63;19.85;;;2.50;99.90;;;;;;4950984;29;20035;-54
2023/12/18 08:47:09;;;;;;;51.50;23.88;;;2.60;99.90;;;;;;4933816;29;20023;-52
2023/12/18 08:49:35;;;;;;;60.33;23.77;;;2.60;99.90;;;;;;4949636;29;20031;-53
2023/12/18 08:52:00;;;;;;;73.15;23.92;;;2.70;99.90;;;;;;4949885;29;20383;-53
2023/12/18 08:54:26;;;;;;;54.47;24.50;;;2.80;99.90;;;;;;4951096;29;20437;-50
2023/12/18 08:56:51;;;;;;;61.67;25.90;;;2.90;99.90;;;;;;4949506;29;20034;-50
2023/12/18 08:59:17;;;;;;;51.22;25.70;;;3.00;99.90;;;;;;4979244;22;20043;-47
2023/12/18 09:01:43;;;;;;;68.20;28.45;;;3.00;99.90;;;;;;4969084;28;20031;-52
2023/12/18 09:04:09;;;;;;;66.85;28.55;;;3.00;99.90;;;;;;5036392;28;20371;-49
2023/12/18 09:06:37;;;;;;;65.32;30.48;;;3.10;99.90;;;;;;4952360;28;20494;-54
2023/12/18 09:09:03;;;;;;;70.25;31.77;;;3.10;99.90;;;;;;4952214;28;20035;-52
2023/12/18 09:11:30;;;;;;;69.38;33.65;;;3.10;99.90;;;;;;4952179;28;20038;-54
2023/12/18 09:13:56;;;;;;;74.22;31.88;;;3.10;99.90;;;;;;4969744;28;20106;-51
2023/12/18 09:16:22;;;;;;;77.03;34.28;;;3.10;99.90;;;;;;4970144;28;20031;-48
2023/12/18 09:18:48;;;;;;;69.15;33.00;;;3.10;99.90;;;;;;4969785;28;20027;-51
2023/12/18 09:21:13;;;;;;;78.47;33.60;;;3.10;99.90;;;;;;4952151;28;20034;-51
2023/12/18 09:23:39;;;;;;;77.25;34.55;;;3.10;99.90;;;;;;4969596;28;20034;-48
2023/12/18 09:26:05;;;;;;;75.43;34.47;;;3.10;99.90;;;;;;4969787;28;20046;-50
2023/12/18 09:28:31;;;;;;;87.05;37.47;;;3.20;99.90;;;;;;4952531;28;20053;-50
2023/12/18 09:30:56;;;;;;;88.03;35.22;;;3.30;99.90;;;;;;4969531;28;20027;-48
2023/12/18 09:33:22;;;;;;;70.47;33.38;;;3.40;99.90;;;;;;4953012;28;20023;-50
2023/12/18 09:35:47;;;;;;;83.90;36.20;;;3.30;99.90;;;;;;4969734;28;20027;-50
2023/12/18 09:38:13;;;;;;;67.40;30.70;;;3.40;99.90;;;;;;4969539;28;20027;-50
2023/12/18 09:40:43;;;;;;;75.65;34.65;;;3.40;99.90;;;;;;4969181;28;20031;-46
2023/12/18 09:43:09;;;;;;;69.63;33.05;;;3.40;99.90;;;;;;4969384;28;20572;-47
2023/12/18 09:45:35;;;;;;;72.38;32.20;;;3.40;99.90;;;;;;4969194;28;20123;-49
2023/12/18 09:48:01;;;;;;;71.28;34.00;;;3.40;99.90;;;;;;4969255;28;20109;-47
2023/12/18 09:50:27;;;;;;;76.07;33.83;;;3.50;99.90;;;;;;4969088;28;20434;-50
2023/12/18 09:53:02;;;;;;;80.20;33.70;;;3.50;99.90;;;;;;4952209;28;20035;-51
2023/12/18 09:55:30;;;;;;;75.88;34.65;;;3.50;99.90;;;;;;4971255;28;20030;-54
2023/12/18 09:57:58;;;;;;;64.45;32.42;;;3.50;99.90;;;;;;4972139;28;20034;-49
2023/12/18 10:00:25;;;;;;;76.15;34.58;;;3.40;99.90;;;;;;4970671;28;20385;-51
2023/12/18 10:02:52;;;;;;;70.32;32.35;;;3.40;99.90;;;;;;4971550;28;20035;-48
2023/12/18 10:05:17;;;;;;;72.10;32.05;;;3.40;99.90;;;;;;4955271;28;20034;-47
2023/12/18 10:07:43;;;;;;;68.38;32.33;;;3.40;99.90;;;;;;4972755;28;20026;-52
2023/12/18 10:10:08;;;;;;;66.47;34.60;;;3.40;99.90;;;;;;4977338;28;20030;-51
2023/12/18 10:12:34;;;;;;;78.20;33.47;;;3.30;99.90;;;;;;4957532;28;20027;-47
2023/12/18 10:15:00;;;;;;;72.82;32.33;;;3.40;99.90;;;;;;4974757;28;20030;-49
2023/12/18 10:17:25;;;;;;;70.95;33.58;;;3.30;99.90;;;;;;4957352;28;20026;-49
2023/12/18 10:19:51;;;;;;;67.35;32.78;;;3.40;99.90;;;;;;4973127;28;20440;-48
2023/12/18 10:22:17;;;;;;;68.50;31.77;;;3.40;99.90;;;;;;4972104;28;20031;-48
2023/12/18 10:24:43;;;;;;;74.28;35.50;;;3.50;99.90;;;;;;4955089;28;20039;-48
2023/12/18 10:27:09;;;;;;;71.68;34.80;;;3.50;99.90;;;;;;4972311;28;20140;-57
2023/12/18 10:29:35;;;;;;;66.03;34.83;;;3.50;99.90;;;;;;4963553;28;20473;-58
2023/12/18 10:32:01;;;;;;;64.70;33.15;;;3.50;99.90;;;;;;4952297;28;20027;-55
2023/12/18 10:34:26;;;;;;;62.85;32.95;;;3.50;99.90;;;;;;5008148;28;20150;-55
2023/12/18 10:36:55;;;;;;;54.72;31.13;;;3.50;99.90;;;;;;4973670;28;20106;-57
2023/12/18 10:39:25;;;;;;;56.17;30.13;;;3.50;99.90;;;;;;4965548;28;20058;-51
2023/12/18 10:41:54;;;;;;;61.45;33.25;;;3.50;99.90;;;;;;4935223;28;20034;-52
2023/12/18 10:44:23;;;;;;;55.10;30.95;;;3.50;99.90;;;;;;4943016;28;20394;-53
2023/12/18 10:46:49;;;;;;;59.33;30.05;;;3.50;99.90;;;;;;4950804;28;20101;-53
2023/12/18 10:49:16;;;;;;;54.92;29.65;;;3.50;99.90;;;;;;4964460;28;20030;-61
2023/12/18 10:51:44;;;;;;;50.42;28.50;;;3.50;99.90;;;;;;4952304;28;20088;-56
2023/12/18 10:54:11;;;;;;;52.42;30.48;;;3.50;99.90;;;;;;4952400;29;20402;-52
2023/12/18 10:56:39;;;;;;;54.88;29.40;;;3.60;99.90;;;;;;4952961;28;20545;-54
2023/12/18 10:59:06;;;;;;;54.88;29.60;;;3.70;99.90;;;;;;4971376;28;20030;-50
2023/12/18 11:01:34;;;;;;;53.85;30.00;;;3.70;99.90;;;;;;4949035;28;20026;-48
2023/12/18 11:04:01;;;;;;;62.53;32.42;;;3.70;99.90;;;;;;4960354;28;20106;-53
2023/12/18 11:06:28;;;;;;;54.58;31.08;;;3.70;99.90;;;;;;4963472;28;20102;-51
2023/12/18 11:08:54;;;;;;;62.45;32.22;;;3.80;99.90;;;;;;4952123;29;20023;-50
2023/12/18 11:11:21;;;;;;;55.28;32.75;;;3.70;99.90;;;;;;4951874;29;20045;-53
2023/12/18 11:13:54;;;;;;;52.95;29.67;;;3.70;99.90;;;;;;4951890;28;20027;-51
2023/12/18 11:16:40;;;;;;;52.60;30.98;;;3.70;99.90;;;;;;4951755;29;20023;-51
2023/12/18 11:19:15;;;;;;;52.47;30.35;;;3.80;99.90;;;;;;4951977;29;20106;-53
2023/12/18 11:21:41;;;;;;;53.92;32.58;;;3.90;99.90;;;;;;4951619;29;20038;-54
2023/12/18 11:24:07;;;;;;;56.13;31.45;;;3.80;99.90;;;;;;4952010;29;20449;-50
2023/12/18 11:26:36;;;;;;;51.65;30.30;;;3.80;99.90;;;;;;4934594;28;20027;-53
2023/12/18 11:29:34;;;;;;;55.50;30.75;;;3.70;99.90;;;;;;4951740;29;20412;-51
2023/12/18 11:31:59;;;;;;;52.10;31.73;;;3.70;99.90;;;;;;4951669;29;20410;-49
2023/12/18 11:34:25;;;;;;;61.50;31.98;;;3.80;99.90;;;;;;4951601;29;20042;-49
2023/12/18 11:36:51;;;;;;;53.47;32.08;;;3.90;99.90;;;;;;4952789;29;20020;-52
2023/12/18 11:39:16;;;;;;;55.05;32.03;;;3.90;99.90;;;;;;4952673;29;20035;-49
2023/12/18 11:41:47;;;;;;;55.70;27.50;;;3.80;99.90;;;;;;4952617;29;20027;-52
2023/12/18 11:44:14;;;;;;;49.05;28.85;;;3.80;99.90;;;;;;4944408;28;20125;-53
2023/12/18 11:46:41;;;;;;;54.30;31.65;;;3.80;99.90;;;;;;5040203;28;20324;-48
2023/12/18 11:49:07;;;;;;;52.70;29.92;;;3.80;99.90;;;;;;5026136;28;20032;-49
2023/12/18 11:51:34;;;;;;;52.45;29.85;;;3.80;99.90;;;;;;4997883;28;20084;-49
2023/12/18 11:54:01;;;;;;;48.72;29.90;;;3.70;99.90;;;;;;4970954;28;20390;-50
2023/12/18 11:56:46;;;;;;;55.80;33.00;;;3.80;99.90;;;;;;4951284;28;20024;-53
2023/12/18 11:59:14;;;;;;;52.28;30.45;;;3.80;99.90;;;;;;4951467;29;20043;-48
2023/12/18 12:01:41;;;;;;;54.28;31.08;;;3.80;99.90;;;;;;4951192;29;20401;-49
2023/12/18 12:04:07;;;;;;;51.20;30.05;;;3.80;99.90;;;;;;4948924;28;20411;-53
2023/12/18 12:06:34;;;;;;;56.10;32.28;;;3.80;99.90;;;;;;4970309;28;20392;-49
2023/12/18 12:08:59;;;;;;;48.38;28.85;;;3.80;99.90;;;;;;4968737;28;20043;-49
2023/12/18 12:11:25;;;;;;;54.85;29.58;;;3.80;99.90;;;;;;4981296;28;20511;-54
2023/12/18 12:13:54;;;;;;;47.88;29.20;;;3.80;99.90;;;;;;5000282;28;20034;-55
2023/12/18 12:16:20;;;;;;;45.67;28.50;;;3.80;99.90;;;;;;4970324;28;20363;-53
2023/12/18 12:18:47;;;;;;;55.70;30.38;;;3.90;99.90;;;;;;4952384;28;20034;-55
2023/12/18 12:21:14;;;;;;;52.17;31.45;;;4.00;99.90;;;;;;5014801;28;20080;-56
2023/12/18 12:23:39;;;;;;;52.53;30.02;;;4.00;99.90;;;;;;4965938;28;20031;-55
2023/12/18 12:26:06;;;;;;;53.92;31.35;;;4.00;99.90;;;;;;4970273;28;20110;-55
2023/12/18 12:28:32;;;;;;;52.67;30.73;;;4.10;99.90;;;;;;4970183;28;20037;-50
2023/12/18 12:30:58;;;;;;;47.45;28.15;;;4.10;99.90;;;;;;4968201;28;20105;-52